sensor_id;sensor_type;location;lat;lon;timestamp;temperature;humidity
10263;DHT22;5177;50.068;8.156;2022-11-15T00:01:44;8.30;99.90
10263;DHT22;5177;50.068;8.156;2022-11-15T00:04:09;8.30;99.90
10263;DHT22;5177;50.068;8.156;2022-11-15T00:06:35;8.30;99.90
10263;DHT22;5177;50.068;8.156;2022-11-15T00:09:01;8.30;99.90
10263;DHT22;5177;50.068;8.156;2022-11-15T00:11:27;8.30;99.90
10263;DHT22;5177;50.068;8.156;2022-11-15T00:13:56;8.30;99.90
10263;DHT22;5177;50.068;8.156;2022-11-15T00:16:22;8.30;99.90
10263;DHT22;5177;50.068;8.156;2022-11-15T00:18:48;8.30;99.90
10263;DHT22;5177;50.068;8.156;2022-11-15T00:21:13;8.30;99.90
10263;DHT22;5177;50.068;8.156;2022-11-15T00:23:40;8.30;99.90
10263;DHT22;5177;50.068;8.156;2022-11-15T00:26:05;8.30;99.90
10263;DHT22;5177;50.068;8.156;2022-11-15T00:28:31;8.40;99.90
10263;DHT22;5177;50.068;8.156;2022-11-15T00:31:04;8.40;99.90
10263;DHT22;5177;50.068;8.156;2022-11-15T00:33:29;8.40;99.90
10263;DHT22;5177;50.068;8.156;2022-11-15T00:36:05;8.40;99.90
10263;DHT22;5177;50.068;8.156;2022-11-15T00:38:32;8.40;99.90
10263;DHT22;5177;50.068;8.156;2022-11-15T00:40:58;8.40;99.90
10263;DHT22;5177;50.068;8.156;2022-11-15T00:43:23;8.50;99.90
10263;DHT22;5177;50.068;8.156;2022-11-15T00:45:49;8.50;99.90
10263;DHT22;5177;50.068;8.156;2022-11-15T00:48:14;8.50;99.90
10263;DHT22;5177;50.068;8.156;2022-11-15T00:50:40;8.40;99.90
10263;DHT22;5177;50.068;8.156;2022-11-15T00:53:05;8.40;99.90
10263;DHT22;5177;50.068;8.156;2022-11-15T00:55:31;8.40;99.90
10263;DHT22;5177;50.068;8.156;2022-11-15T00:57:56;8.40;99.90
10263;DHT22;5177;50.068;8.156;2022-11-15T01:00:22;8.40;99.90
10263;DHT22;5177;50.068;8.156;2022-11-15T01:02:47;8.40;99.90
10263;DHT22;5177;50.068;8.156;2022-11-15T01:05:13;8.40;99.90
10263;DHT22;5177;50.068;8.156;2022-11-15T01:07:38;8.40;99.90
10263;DHT22;5177;50.068;8.156;2022-11-15T01:10:04;8.30;99.90
10263;DHT22;5177;50.068;8.156;2022-11-15T01:12:30;8.30;99.90
10263;DHT22;5177;50.068;8.156;2022-11-15T01:14:55;8.40;99.90
10263;DHT22;5177;50.068;8.156;2022-11-15T01:17:21;8.40;99.90
10263;DHT22;5177;50.068;8.156;2022-11-15T01:19:46;8.50;99.90
10263;DHT22;5177;50.068;8.156;2022-11-15T01:22:12;8.50;99.90
10263;DHT22;5177;50.068;8.156;2022-11-15T01:24:37;8.50;99.90
10263;DHT22;5177;50.068;8.156;2022-11-15T01:27:03;8.50;99.90
10263;DHT22;5177;50.068;8.156;2022-11-15T01:29:28;8.50;99.90
10263;DHT22;5177;50.068;8.156;2022-11-15T01:31:54;8.50;99.90
10263;DHT22;5177;50.068;8.156;2022-11-15T01:34:19;8.50;99.90
10263;DHT22;5177;50.068;8.156;2022-11-15T01:36:45;8.50;99.90
10263;DHT22;5177;50.068;8.156;2022-11-15T01:39:10;8.60;99.90
10263;DHT22;5177;50.068;8.156;2022-11-15T01:41:35;8.60;99.90
10263;DHT22;5177;50.068;8.156;2022-11-15T01:44:45;8.60;99.90
10263;DHT22;5177;50.068;8.156;2022-11-15T01:46:50;8.60;99.90
10263;DHT22;5177;50.068;8.156;2022-11-15T01:49:16;8.60;99.90
10263;DHT22;5177;50.068;8.156;2022-11-15T01:51:42;8.60;99.90
10263;DHT22;5177;50.068;8.156;2022-11-15T01:54:08;8.60;99.90
10263;DHT22;5177;50.068;8.156;2022-11-15T01:56:41;8.60;99.90
10263;DHT22;5177;50.068;8.156;2022-11-15T01:59:08;8.60;99.90
10263;DHT22;5177;50.068;8.156;2022-11-15T02:01:34;8.60;99.90
10263;DHT22;5177;50.068;8.156;2022-11-15T02:06:44;8.60;99.90
10263;DHT22;5177;50.068;8.156;2022-11-15T02:09:10;8.60;99.90
10263;DHT22;5177;50.068;8.156;2022-11-15T02:11:36;8.60;99.90
10263;DHT22;5177;50.068;8.156;2022-11-15T02:14:02;8.60;99.90
10263;DHT22;5177;50.068;8.156;2022-11-15T02:16:43;8.60;99.90
10263;DHT22;5177;50.068;8.156;2022-11-15T02:24:51;8.50;99.90
10263;DHT22;5177;50.068;8.156;2022-11-15T02:27:29;8.50;99.90
10263;DHT22;5177;50.068;8.156;2022-11-15T02:30:19;8.50;99.90
10263;DHT22;5177;50.068;8.156;2022-11-15T02:32:45;8.50;99.90
10263;DHT22;5177;50.068;8.156;2022-11-15T02:37:51;8.50;99.90
10263;DHT22;5177;50.068;8.156;2022-11-15T02:42:50;8.60;99.90
10263;DHT22;5177;50.068;8.156;2022-11-15T02:45:37;8.50;99.90
10263;DHT22;5177;50.068;8.156;2022-11-15T02:48:04;8.60;99.90
10263;DHT22;5177;50.068;8.156;2022-11-15T02:50:31;8.60;99.90
10263;DHT22;5177;50.068;8.156;2022-11-15T02:52:58;8.60;99.90
10263;DHT22;5177;50.068;8.156;2022-11-15T03:00:23;8.60;99.90
10263;DHT22;5177;50.068;8.156;2022-11-15T03:05:37;8.60;99.90
10263;DHT22;5177;50.068;8.156;2022-11-15T03:10:48;8.60;99.90
10263;DHT22;5177;50.068;8.156;2022-11-15T03:13:30;8.50;99.90
10263;DHT22;5177;50.068;8.156;2022-11-15T03:18:34;8.60;99.90
10263;DHT22;5177;50.068;8.156;2022-11-15T03:21:01;8.60;99.90
10263;DHT22;5177;50.068;8.156;2022-11-15T03:23:30;8.60;99.90
10263;DHT22;5177;50.068;8.156;2022-11-15T03:25:56;8.60;99.90
10263;DHT22;5177;50.068;8.156;2022-11-15T03:28:23;8.70;99.90
10263;DHT22;5177;50.068;8.156;2022-11-15T03:30:50;8.70;99.90
10263;DHT22;5177;50.068;8.156;2022-11-15T03:33:16;8.70;99.90
10263;DHT22;5177;50.068;8.156;2022-11-15T03:35:43;8.70;99.90
10263;DHT22;5177;50.068;8.156;2022-11-15T03:38:25;8.80;99.90
10263;DHT22;5177;50.068;8.156;2022-11-15T03:40:55;8.80;99.90
10263;DHT22;5177;50.068;8.156;2022-11-15T03:43:27;8.80;99.90
10263;DHT22;5177;50.068;8.156;2022-11-15T03:45:56;8.80;99.90
10263;DHT22;5177;50.068;8.156;2022-11-15T03:48:25;8.80;99.90
10263;DHT22;5177;50.068;8.156;2022-11-15T03:50:52;8.90;99.90
10263;DHT22;5177;50.068;8.156;2022-11-15T03:53:18;8.90;99.90
10263;DHT22;5177;50.068;8.156;2022-11-15T03:55:44;8.90;99.90
10263;DHT22;5177;50.068;8.156;2022-11-15T03:58:09;8.90;99.90
10263;DHT22;5177;50.068;8.156;2022-11-15T04:00:35;8.90;99.90
10263;DHT22;5177;50.068;8.156;2022-11-15T04:03:00;8.80;99.90
10263;DHT22;5177;50.068;8.156;2022-11-15T04:05:26;8.90;99.90
10263;DHT22;5177;50.068;8.156;2022-11-15T04:07:51;8.90;99.90
10263;DHT22;5177;50.068;8.156;2022-11-15T04:10:17;9.00;99.90
10263;DHT22;5177;50.068;8.156;2022-11-15T04:12:43;9.00;99.90
10263;DHT22;5177;50.068;8.156;2022-11-15T04:15:12;9.00;99.90
10263;DHT22;5177;50.068;8.156;2022-11-15T04:17:39;9.10;99.90
10263;DHT22;5177;50.068;8.156;2022-11-15T04:20:06;9.20;99.90
10263;DHT22;5177;50.068;8.156;2022-11-15T04:22:57;9.20;99.90
10263;DHT22;5177;50.068;8.156;2022-11-15T04:25:41;9.30;99.90
10263;DHT22;5177;50.068;8.156;2022-11-15T04:28:07;9.40;99.90
10263;DHT22;5177;50.068;8.156;2022-11-15T04:30:33;9.40;99.90
10263;DHT22;5177;50.068;8.156;2022-11-15T04:32:58;9.40;99.90
10263;DHT22;5177;50.068;8.156;2022-11-15T04:35:24;9.40;99.90
10263;DHT22;5177;50.068;8.156;2022-11-15T04:37:50;9.40;99.90
10263;DHT22;5177;50.068;8.156;2022-11-15T04:40:15;9.40;99.90
10263;DHT22;5177;50.068;8.156;2022-11-15T04:42:41;9.40;99.90
10263;DHT22;5177;50.068;8.156;2022-11-15T04:45:08;9.40;99.90
10263;DHT22;5177;50.068;8.156;2022-11-15T04:47:33;9.50;99.90
10263;DHT22;5177;50.068;8.156;2022-11-15T04:49:59;9.40;99.90
10263;DHT22;5177;50.068;8.156;2022-11-15T04:52:24;9.50;99.90
10263;DHT22;5177;50.068;8.156;2022-11-15T04:54:50;9.60;99.90
10263;DHT22;5177;50.068;8.156;2022-11-15T04:57:15;9.60;99.90
10263;DHT22;5177;50.068;8.156;2022-11-15T04:59:41;9.60;99.90
10263;DHT22;5177;50.068;8.156;2022-11-15T05:02:06;9.70;99.90
10263;DHT22;5177;50.068;8.156;2022-11-15T05:04:32;9.70;99.90
10263;DHT22;5177;50.068;8.156;2022-11-15T05:06:57;9.70;99.90
10263;DHT22;5177;50.068;8.156;2022-11-15T05:09:23;9.70;99.90
10263;DHT22;5177;50.068;8.156;2022-11-15T05:11:48;9.80;99.90
10263;DHT22;5177;50.068;8.156;2022-11-15T05:14:14;9.90;99.90
10263;DHT22;5177;50.068;8.156;2022-11-15T05:16:39;9.80;99.90
10263;DHT22;5177;50.068;8.156;2022-11-15T05:19:05;9.80;99.90
10263;DHT22;5177;50.068;8.156;2022-11-15T05:21:31;9.90;99.90
10263;DHT22;5177;50.068;8.156;2022-11-15T05:23:57;9.90;99.90
10263;DHT22;5177;50.068;8.156;2022-11-15T05:26:22;9.80;99.90
10263;DHT22;5177;50.068;8.156;2022-11-15T05:28:51;9.90;99.90
10263;DHT22;5177;50.068;8.156;2022-11-15T05:31:17;9.90;99.90
10263;DHT22;5177;50.068;8.156;2022-11-15T05:33:42;9.90;99.90
10263;DHT22;5177;50.068;8.156;2022-11-15T05:38:52;10.00;99.90
10263;DHT22;5177;50.068;8.156;2022-11-15T05:41:18;10.10;99.90
10263;DHT22;5177;50.068;8.156;2022-11-15T05:43:46;10.10;99.90
10263;DHT22;5177;50.068;8.156;2022-11-15T05:46:12;10.10;99.90
10263;DHT22;5177;50.068;8.156;2022-11-15T05:48:39;10.10;99.90
10263;DHT22;5177;50.068;8.156;2022-11-15T05:51:05;10.10;99.90
10263;DHT22;5177;50.068;8.156;2022-11-15T05:53:31;10.10;99.90
10263;DHT22;5177;50.068;8.156;2022-11-15T05:55:57;10.10;99.90
10263;DHT22;5177;50.068;8.156;2022-11-15T05:58:23;10.10;99.90
10263;DHT22;5177;50.068;8.156;2022-11-15T06:00:48;10.10;99.90
10263;DHT22;5177;50.068;8.156;2022-11-15T06:03:14;10.10;99.90
10263;DHT22;5177;50.068;8.156;2022-11-15T06:05:40;10.10;99.90
10263;DHT22;5177;50.068;8.156;2022-11-15T06:08:05;10.00;99.90
10263;DHT22;5177;50.068;8.156;2022-11-15T06:10:31;10.00;99.90
10263;DHT22;5177;50.068;8.156;2022-11-15T06:12:59;10.00;99.90
10263;DHT22;5177;50.068;8.156;2022-11-15T06:15:26;10.00;99.90
10263;DHT22;5177;50.068;8.156;2022-11-15T06:17:51;10.00;99.90
10263;DHT22;5177;50.068;8.156;2022-11-15T06:20:17;9.90;99.90
10263;DHT22;5177;50.068;8.156;2022-11-15T06:22:43;10.00;99.90
10263;DHT22;5177;50.068;8.156;2022-11-15T06:25:08;9.90;99.90
10263;DHT22;5177;50.068;8.156;2022-11-15T06:27:33;9.90;99.90
10263;DHT22;5177;50.068;8.156;2022-11-15T06:29:59;9.90;99.90
10263;DHT22;5177;50.068;8.156;2022-11-15T06:32:24;9.90;99.90
10263;DHT22;5177;50.068;8.156;2022-11-15T06:34:50;9.90;99.90
10263;DHT22;5177;50.068;8.156;2022-11-15T06:37:15;9.90;99.90
10263;DHT22;5177;50.068;8.156;2022-11-15T06:39:41;10.00;99.90
10263;DHT22;5177;50.068;8.156;2022-11-15T06:42:07;10.00;99.90
10263;DHT22;5177;50.068;8.156;2022-11-15T06:44:33;10.00;99.90
10263;DHT22;5177;50.068;8.156;2022-11-15T06:46:58;10.00;99.90
10263;DHT22;5177;50.068;8.156;2022-11-15T06:49:24;10.00;99.90
10263;DHT22;5177;50.068;8.156;2022-11-15T06:51:49;10.00;99.90
10263;DHT22;5177;50.068;8.156;2022-11-15T06:54:15;10.00;99.90
10263;DHT22;5177;50.068;8.156;2022-11-15T06:56:40;10.00;99.90
10263;DHT22;5177;50.068;8.156;2022-11-15T06:59:06;10.10;99.90
10263;DHT22;5177;50.068;8.156;2022-11-15T07:01:31;10.10;99.90
10263;DHT22;5177;50.068;8.156;2022-11-15T07:03:57;10.00;99.90
10263;DHT22;5177;50.068;8.156;2022-11-15T07:06:22;10.10;99.90
10263;DHT22;5177;50.068;8.156;2022-11-15T07:08:48;10.10;99.90
10263;DHT22;5177;50.068;8.156;2022-11-15T07:11:13;10.20;99.90
10263;DHT22;5177;50.068;8.156;2022-11-15T07:13:39;10.20;99.90
10263;DHT22;5177;50.068;8.156;2022-11-15T07:16:06;10.20;99.90
10263;DHT22;5177;50.068;8.156;2022-11-15T07:18:33;10.20;99.90
10263;DHT22;5177;50.068;8.156;2022-11-15T07:21:06;10.20;99.90
10263;DHT22;5177;50.068;8.156;2022-11-15T07:23:32;10.20;99.90
10263;DHT22;5177;50.068;8.156;2022-11-15T07:25:57;10.20;99.90
10263;DHT22;5177;50.068;8.156;2022-11-15T07:28:23;10.20;99.90
10263;DHT22;5177;50.068;8.156;2022-11-15T07:30:49;10.30;99.90
10263;DHT22;5177;50.068;8.156;2022-11-15T07:33:14;10.20;99.90
10263;DHT22;5177;50.068;8.156;2022-11-15T07:35:40;10.30;99.90
10263;DHT22;5177;50.068;8.156;2022-11-15T07:38:05;10.30;99.90
10263;DHT22;5177;50.068;8.156;2022-11-15T07:40:31;10.30;99.90
10263;DHT22;5177;50.068;8.156;2022-11-15T07:43:06;10.30;99.90
10263;DHT22;5177;50.068;8.156;2022-11-15T07:45:32;10.40;99.90
10263;DHT22;5177;50.068;8.156;2022-11-15T07:47:59;10.40;99.90
10263;DHT22;5177;50.068;8.156;2022-11-15T07:50:25;10.40;99.90
10263;DHT22;5177;50.068;8.156;2022-11-15T07:52:54;10.40;99.90
10263;DHT22;5177;50.068;8.156;2022-11-15T07:55:20;10.40;99.90
10263;DHT22;5177;50.068;8.156;2022-11-15T07:57:46;10.40;99.90
10263;DHT22;5177;50.068;8.156;2022-11-15T08:00:12;10.50;99.90
10263;DHT22;5177;50.068;8.156;2022-11-15T08:02:37;10.50;99.90
10263;DHT22;5177;50.068;8.156;2022-11-15T08:05:03;10.50;99.90
10263;DHT22;5177;50.068;8.156;2022-11-15T08:07:29;10.50;99.90
10263;DHT22;5177;50.068;8.156;2022-11-15T08:09:55;10.50;99.90
10263;DHT22;5177;50.068;8.156;2022-11-15T08:12:21;10.60;99.90
10263;DHT22;5177;50.068;8.156;2022-11-15T08:14:46;10.60;99.90
10263;DHT22;5177;50.068;8.156;2022-11-15T08:17:12;10.60;99.90
10263;DHT22;5177;50.068;8.156;2022-11-15T08:19:37;10.60;99.90
10263;DHT22;5177;50.068;8.156;2022-11-15T08:22:03;10.60;99.90
10263;DHT22;5177;50.068;8.156;2022-11-15T08:24:28;10.60;99.90
10263;DHT22;5177;50.068;8.156;2022-11-15T08:26:54;10.60;99.90
10263;DHT22;5177;50.068;8.156;2022-11-15T08:29:19;10.60;99.90
10263;DHT22;5177;50.068;8.156;2022-11-15T08:31:45;10.70;99.90
10263;DHT22;5177;50.068;8.156;2022-11-15T08:34:10;10.70;99.90
10263;DHT22;5177;50.068;8.156;2022-11-15T08:36:36;10.70;99.90
10263;DHT22;5177;50.068;8.156;2022-11-15T08:39:01;10.70;99.90
10263;DHT22;5177;50.068;8.156;2022-11-15T08:41:31;10.70;99.90
10263;DHT22;5177;50.068;8.156;2022-11-15T08:43:57;10.80;99.90
10263;DHT22;5177;50.068;8.156;2022-11-15T08:46:22;10.80;99.90
10263;DHT22;5177;50.068;8.156;2022-11-15T08:48:48;10.80;99.90
10263;DHT22;5177;50.068;8.156;2022-11-15T08:51:13;10.80;99.90
10263;DHT22;5177;50.068;8.156;2022-11-15T08:53:39;10.90;99.90
10263;DHT22;5177;50.068;8.156;2022-11-15T08:56:08;10.90;99.90
10263;DHT22;5177;50.068;8.156;2022-11-15T08:58:34;10.90;99.90
10263;DHT22;5177;50.068;8.156;2022-11-15T09:01:00;11.00;99.90
10263;DHT22;5177;50.068;8.156;2022-11-15T09:03:25;11.00;99.90
10263;DHT22;5177;50.068;8.156;2022-11-15T09:05:54;11.10;99.90
10263;DHT22;5177;50.068;8.156;2022-11-15T09:08:20;11.20;99.90
10263;DHT22;5177;50.068;8.156;2022-11-15T09:10:46;11.20;99.90
10263;DHT22;5177;50.068;8.156;2022-11-15T09:13:11;11.20;99.90
10263;DHT22;5177;50.068;8.156;2022-11-15T09:15:37;11.20;99.90
10263;DHT22;5177;50.068;8.156;2022-11-15T09:18:02;11.30;99.90
10263;DHT22;5177;50.068;8.156;2022-11-15T09:20:28;11.30;99.90
10263;DHT22;5177;50.068;8.156;2022-11-15T09:22:53;11.40;99.90
10263;DHT22;5177;50.068;8.156;2022-11-15T09:25:19;11.40;99.90
10263;DHT22;5177;50.068;8.156;2022-11-15T09:27:44;11.40;99.90
10263;DHT22;5177;50.068;8.156;2022-11-15T09:30:10;11.40;99.90
10263;DHT22;5177;50.068;8.156;2022-11-15T09:32:35;11.40;99.90
10263;DHT22;5177;50.068;8.156;2022-11-15T09:35:01;11.40;99.90
10263;DHT22;5177;50.068;8.156;2022-11-15T09:37:26;11.50;99.90
10263;DHT22;5177;50.068;8.156;2022-11-15T09:39:52;11.40;99.90
10263;DHT22;5177;50.068;8.156;2022-11-15T09:42:21;11.50;99.90
10263;DHT22;5177;50.068;8.156;2022-11-15T09:44:55;11.50;99.90
10263;DHT22;5177;50.068;8.156;2022-11-15T09:50:00;11.60;99.90
10263;DHT22;5177;50.068;8.156;2022-11-15T09:52:27;11.70;99.90
10263;DHT22;5177;50.068;8.156;2022-11-15T09:54:53;11.70;99.90
10263;DHT22;5177;50.068;8.156;2022-11-15T09:57:32;11.70;99.90
10263;DHT22;5177;50.068;8.156;2022-11-15T10:00:15;11.70;99.90
10263;DHT22;5177;50.068;8.156;2022-11-15T10:05:46;11.70;99.90
10263;DHT22;5177;50.068;8.156;2022-11-15T10:10:52;11.80;99.90
10263;DHT22;5177;50.068;8.156;2022-11-15T10:13:28;11.90;99.90
10263;DHT22;5177;50.068;8.156;2022-11-15T10:15:56;12.00;99.90
10263;DHT22;5177;50.068;8.156;2022-11-15T10:21:00;12.00;99.90
10263;DHT22;5177;50.068;8.156;2022-11-15T10:23:27;12.10;99.90
10263;DHT22;5177;50.068;8.156;2022-11-15T10:25:54;12.00;99.90
10263;DHT22;5177;50.068;8.156;2022-11-15T10:28:29;12.10;99.90
10263;DHT22;5177;50.068;8.156;2022-11-15T10:30:57;12.10;99.90
10263;DHT22;5177;50.068;8.156;2022-11-15T10:33:32;12.20;99.90
10263;DHT22;5177;50.068;8.156;2022-11-15T10:44:01;12.40;99.90
10263;DHT22;5177;50.068;8.156;2022-11-15T10:46:26;12.30;99.90
10263;DHT22;5177;50.068;8.156;2022-11-15T10:48:52;12.40;99.90
10263;DHT22;5177;50.068;8.156;2022-11-15T10:51:23;12.40;99.90
10263;DHT22;5177;50.068;8.156;2022-11-15T10:53:53;12.50;99.90
10263;DHT22;5177;50.068;8.156;2022-11-15T10:56:20;12.60;99.90
10263;DHT22;5177;50.068;8.156;2022-11-15T10:58:50;12.80;99.90
10263;DHT22;5177;50.068;8.156;2022-11-15T11:03:42;13.10;99.90
10263;DHT22;5177;50.068;8.156;2022-11-15T11:06:13;13.10;99.90
10263;DHT22;5177;50.068;8.156;2022-11-15T11:08:39;13.10;99.90
10263;DHT22;5177;50.068;8.156;2022-11-15T11:11:05;13.10;99.90
10263;DHT22;5177;50.068;8.156;2022-11-15T11:13:32;13.30;99.90
10263;DHT22;5177;50.068;8.156;2022-11-15T11:18:41;13.10;99.90
10263;DHT22;5177;50.068;8.156;2022-11-15T11:21:09;13.30;99.90
10263;DHT22;5177;50.068;8.156;2022-11-15T11:23:59;13.30;99.90
10263;DHT22;5177;50.068;8.156;2022-11-15T11:29:02;13.30;99.90
10263;DHT22;5177;50.068;8.156;2022-11-15T11:36:41;13.20;99.90
10263;DHT22;5177;50.068;8.156;2022-11-15T11:41:42;13.10;99.90
10263;DHT22;5177;50.068;8.156;2022-11-15T11:49:10;13.00;99.90
10263;DHT22;5177;50.068;8.156;2022-11-15T11:51:43;13.20;99.90
10263;DHT22;5177;50.068;8.156;2022-11-15T11:54:27;13.20;99.90
10263;DHT22;5177;50.068;8.156;2022-11-15T11:56:55;13.20;99.90
10263;DHT22;5177;50.068;8.156;2022-11-15T12:02:35;13.20;99.90
10263;DHT22;5177;50.068;8.156;2022-11-15T12:05:20;13.30;99.90
10263;DHT22;5177;50.068;8.156;2022-11-15T12:07:48;13.40;99.90
10263;DHT22;5177;50.068;8.156;2022-11-15T12:17:34;13.30;99.90
10263;DHT22;5177;50.068;8.156;2022-11-15T12:20:04;13.30;99.90
10263;DHT22;5177;50.068;8.156;2022-11-15T12:25:06;13.40;99.90
10263;DHT22;5177;50.068;8.156;2022-11-15T12:27:38;13.20;99.90
10263;DHT22;5177;50.068;8.156;2022-11-15T12:30:08;13.20;99.90
10263;DHT22;5177;50.068;8.156;2022-11-15T12:32:37;13.20;99.90
10263;DHT22;5177;50.068;8.156;2022-11-15T12:35:03;13.20;99.90
10263;DHT22;5177;50.068;8.156;2022-11-15T12:42:56;13.20;99.90
10263;DHT22;5177;50.068;8.156;2022-11-15T12:47:51;13.30;99.90
10263;DHT22;5177;50.068;8.156;2022-11-15T12:50:18;13.30;99.90
10263;DHT22;5177;50.068;8.156;2022-11-15T12:55:46;13.30;99.90
10263;DHT22;5177;50.068;8.156;2022-11-15T12:58:42;13.30;99.90
10263;DHT22;5177;50.068;8.156;2022-11-15T13:01:08;13.30;99.90
10263;DHT22;5177;50.068;8.156;2022-11-15T13:03:34;13.40;99.90
10263;DHT22;5177;50.068;8.156;2022-11-15T13:06:01;13.40;99.90
10263;DHT22;5177;50.068;8.156;2022-11-15T13:08:41;13.30;99.10
10263;DHT22;5177;50.068;8.156;2022-11-15T13:17:00;13.40;93.90
10263;DHT22;5177;50.068;8.156;2022-11-15T13:19:26;13.40;99.90
10263;DHT22;5177;50.068;8.156;2022-11-15T13:21:51;13.40;95.40
10263;DHT22;5177;50.068;8.156;2022-11-15T13:24:37;13.40;99.70
10263;DHT22;5177;50.068;8.156;2022-11-15T13:27:09;13.40;99.90
10263;DHT22;5177;50.068;8.156;2022-11-15T13:29:36;13.30;99.90
10263;DHT22;5177;50.068;8.156;2022-11-15T13:32:01;13.30;99.90
10263;DHT22;5177;50.068;8.156;2022-11-15T13:34:30;13.30;99.90
10263;DHT22;5177;50.068;8.156;2022-11-15T13:37:01;13.30;99.90
10263;DHT22;5177;50.068;8.156;2022-11-15T13:41:52;13.40;99.90
10263;DHT22;5177;50.068;8.156;2022-11-15T13:44:19;13.30;99.90
10263;DHT22;5177;50.068;8.156;2022-11-15T13:46:45;13.30;99.90
10263;DHT22;5177;50.068;8.156;2022-11-15T13:49:10;13.30;99.90
10263;DHT22;5177;50.068;8.156;2022-11-15T13:51:37;13.20;99.90
10263;DHT22;5177;50.068;8.156;2022-11-15T13:54:19;13.20;99.90
10263;DHT22;5177;50.068;8.156;2022-11-15T13:56:52;13.10;99.90
10263;DHT22;5177;50.068;8.156;2022-11-15T13:59:25;13.20;99.90
10263;DHT22;5177;50.068;8.156;2022-11-15T14:01:51;13.20;99.90
10263;DHT22;5177;50.068;8.156;2022-11-15T14:04:18;13.10;99.90
10263;DHT22;5177;50.068;8.156;2022-11-15T14:06:45;13.20;99.90
10263;DHT22;5177;50.068;8.156;2022-11-15T14:11:54;13.10;99.90
10263;DHT22;5177;50.068;8.156;2022-11-15T14:14:21;13.10;99.90
10263;DHT22;5177;50.068;8.156;2022-11-15T14:16:48;13.10;99.90
10263;DHT22;5177;50.068;8.156;2022-11-15T14:24:30;13.00;99.90
10263;DHT22;5177;50.068;8.156;2022-11-15T14:26:56;13.00;99.90
10263;DHT22;5177;50.068;8.156;2022-11-15T14:29:25;13.00;99.90
10263;DHT22;5177;50.068;8.156;2022-11-15T14:31:51;12.90;99.90
10263;DHT22;5177;50.068;8.156;2022-11-15T14:34:17;12.80;99.90
10263;DHT22;5177;50.068;8.156;2022-11-15T14:36:42;12.90;99.90
10263;DHT22;5177;50.068;8.156;2022-11-15T14:39:08;12.90;99.90
10263;DHT22;5177;50.068;8.156;2022-11-15T14:41:35;12.90;99.90
10263;DHT22;5177;50.068;8.156;2022-11-15T14:44:03;12.80;99.90
10263;DHT22;5177;50.068;8.156;2022-11-15T14:46:29;12.80;99.90
10263;DHT22;5177;50.068;8.156;2022-11-15T14:48:54;12.90;99.90
10263;DHT22;5177;50.068;8.156;2022-11-15T14:51:20;12.90;99.90
10263;DHT22;5177;50.068;8.156;2022-11-15T14:53:45;12.90;99.90
10263;DHT22;5177;50.068;8.156;2022-11-15T14:56:12;12.80;99.90
10263;DHT22;5177;50.068;8.156;2022-11-15T14:58:38;12.90;99.90
10263;DHT22;5177;50.068;8.156;2022-11-15T15:03:58;12.80;99.90
10263;DHT22;5177;50.068;8.156;2022-11-15T15:06:24;12.80;99.90
10263;DHT22;5177;50.068;8.156;2022-11-15T15:08:50;12.80;99.90
10263;DHT22;5177;50.068;8.156;2022-11-15T15:11:26;12.80;99.90
10263;DHT22;5177;50.068;8.156;2022-11-15T15:13:53;12.70;99.90
10263;DHT22;5177;50.068;8.156;2022-11-15T15:16:21;12.70;99.90
10263;DHT22;5177;50.068;8.156;2022-11-15T15:18:47;12.70;99.90
10263;DHT22;5177;50.068;8.156;2022-11-15T15:21:23;12.70;99.90
10263;DHT22;5177;50.068;8.156;2022-11-15T15:23:48;12.70;99.90
10263;DHT22;5177;50.068;8.156;2022-11-15T15:26:14;12.60;99.90
10263;DHT22;5177;50.068;8.156;2022-11-15T15:28:40;12.60;99.90
10263;DHT22;5177;50.068;8.156;2022-11-15T15:31:05;12.60;99.90
10263;DHT22;5177;50.068;8.156;2022-11-15T15:33:31;12.60;99.90
10263;DHT22;5177;50.068;8.156;2022-11-15T15:35:57;12.60;99.90
10263;DHT22;5177;50.068;8.156;2022-11-15T15:38:22;12.70;99.90
10263;DHT22;5177;50.068;8.156;2022-11-15T15:40:48;12.70;99.90
10263;DHT22;5177;50.068;8.156;2022-11-15T15:43:13;12.70;99.90
10263;DHT22;5177;50.068;8.156;2022-11-15T15:45:40;12.70;99.90
10263;DHT22;5177;50.068;8.156;2022-11-15T15:48:09;12.60;99.90
10263;DHT22;5177;50.068;8.156;2022-11-15T15:50:35;12.60;99.90
10263;DHT22;5177;50.068;8.156;2022-11-15T15:53:02;12.50;99.90
10263;DHT22;5177;50.068;8.156;2022-11-15T15:55:28;12.50;99.90
10263;DHT22;5177;50.068;8.156;2022-11-15T15:57:54;12.50;99.90
10263;DHT22;5177;50.068;8.156;2022-11-15T16:00:20;12.50;99.90
10263;DHT22;5177;50.068;8.156;2022-11-15T16:02:46;12.40;99.90
10263;DHT22;5177;50.068;8.156;2022-11-15T16:05:12;12.50;99.90
10263;DHT22;5177;50.068;8.156;2022-11-15T16:07:38;12.50;99.90
10263;DHT22;5177;50.068;8.156;2022-11-15T16:10:24;12.50;99.90
10263;DHT22;5177;50.068;8.156;2022-11-15T16:12:50;12.50;99.90
10263;DHT22;5177;50.068;8.156;2022-11-15T16:15:16;12.50;99.90
10263;DHT22;5177;50.068;8.156;2022-11-15T16:17:51;12.40;99.90
10263;DHT22;5177;50.068;8.156;2022-11-15T16:22:52;12.40;99.90
10263;DHT22;5177;50.068;8.156;2022-11-15T16:25:17;12.30;99.90
10263;DHT22;5177;50.068;8.156;2022-11-15T16:27:43;12.30;99.90
10263;DHT22;5177;50.068;8.156;2022-11-15T16:30:14;12.30;99.90
10263;DHT22;5177;50.068;8.156;2022-11-15T16:32:40;12.30;99.90
10263;DHT22;5177;50.068;8.156;2022-11-15T16:35:06;12.20;99.90
10263;DHT22;5177;50.068;8.156;2022-11-15T16:37:32;12.20;99.90
10263;DHT22;5177;50.068;8.156;2022-11-15T16:39:57;12.20;99.90
10263;DHT22;5177;50.068;8.156;2022-11-15T16:42:23;12.20;99.90
10263;DHT22;5177;50.068;8.156;2022-11-15T16:44:48;12.10;99.90
10263;DHT22;5177;50.068;8.156;2022-11-15T16:47:17;12.10;99.90
10263;DHT22;5177;50.068;8.156;2022-11-15T16:49:44;12.10;99.90
10263;DHT22;5177;50.068;8.156;2022-11-15T16:52:09;12.10;99.90
10263;DHT22;5177;50.068;8.156;2022-11-15T16:54:35;12.10;99.90
10263;DHT22;5177;50.068;8.156;2022-11-15T16:57:01;12.10;99.90
10263;DHT22;5177;50.068;8.156;2022-11-15T16:59:26;12.00;99.90
10263;DHT22;5177;50.068;8.156;2022-11-15T17:01:52;12.00;99.90
10263;DHT22;5177;50.068;8.156;2022-11-15T17:04:18;12.00;99.90
10263;DHT22;5177;50.068;8.156;2022-11-15T17:06:45;12.00;99.90
10263;DHT22;5177;50.068;8.156;2022-11-15T17:09:15;12.00;99.90
10263;DHT22;5177;50.068;8.156;2022-11-15T17:11:41;12.00;99.90
10263;DHT22;5177;50.068;8.156;2022-11-15T17:14:06;11.90;99.90
10263;DHT22;5177;50.068;8.156;2022-11-15T17:16:32;11.90;99.90
10263;DHT22;5177;50.068;8.156;2022-11-15T17:19:29;11.90;99.90
10263;DHT22;5177;50.068;8.156;2022-11-15T17:21:54;11.90;99.90
10263;DHT22;5177;50.068;8.156;2022-11-15T17:24:20;11.90;99.90
10263;DHT22;5177;50.068;8.156;2022-11-15T17:26:46;11.90;99.90
10263;DHT22;5177;50.068;8.156;2022-11-15T17:29:11;11.90;99.90
10263;DHT22;5177;50.068;8.156;2022-11-15T17:31:37;11.90;99.90
10263;DHT22;5177;50.068;8.156;2022-11-15T17:34:03;11.80;99.90
10263;DHT22;5177;50.068;8.156;2022-11-15T17:36:29;11.80;99.90
10263;DHT22;5177;50.068;8.156;2022-11-15T17:38:55;11.70;99.90
10263;DHT22;5177;50.068;8.156;2022-11-15T17:41:20;11.70;99.90
10263;DHT22;5177;50.068;8.156;2022-11-15T17:43:46;11.70;99.90
10263;DHT22;5177;50.068;8.156;2022-11-15T17:46:13;11.70;99.90
10263;DHT22;5177;50.068;8.156;2022-11-15T17:48:39;11.70;99.90